Flight Track Log - Related Links

Times and Time Zones

All times are in EDT time to prevent confusion due to time zone crossing. See the SWA3675 flight status page for this flight to view local times or setup timezone preferences in your user account.

Time Position Orientation Groundspeed Altitude Reporting Facility
EDT Latitude Longitude Course Direction KTS MPH feet Rate Location/Type
Wed 09:20:32 PM 39.1350 -76.7475 184° South 226 260 5,400  Level Washington Center
Wed 09:21:13 PM 39.0833 -76.7000 144° Southeast 269 310 8,400 2,883 Climbing Potomac TRACON
Wed 09:23:31 PM 38.9533 -76.5419 137° Southeast 316 364 14,000 1,714 Climbing Washington Center
Wed 09:24:29 PM 38.8597 -76.5272 173° South 308 354 14,000  Level Washington Center
Wed 09:25:00 PM 38.7190 -76.7031 184° South  Level FlightAware Approximate
Wed 09:25:30 PM 38.7619 -76.5103 172° South 335 386 14,000  Level Washington Center
Wed 09:26:31 PM 38.6619 -76.4931 172° South 354 407 14,000  Level Washington Center
Wed 09:27:31 PM 38.5661 -76.4811 174° South 359 413 14,000  Level Washington Center
Wed 09:28:31 PM 38.4661 -76.4642 172° South 359 413 14,000  Level Washington Center
Wed 09:29:29 PM 38.3703 -76.4472 172° South 359 413 14,000 -504 Level Washington Center
Wed 09:30:30 PM 38.2744 -76.4275 171° South 354 407 13,000 -992 Descending Washington Center
Wed 09:31:30 PM 38.1786 -76.4133 173° South 354 407 12,000 -950 Descending Washington Center
Wed 09:32:30 PM 38.0786 -76.3964 172° South 354 407 11,100 -958 Descending Washington Center
Wed 09:33:29 PM 37.9850 -76.3822 173° South 349 402 10,100 -673 Descending Washington Center
Wed 09:34:08 PM 37.9203 -76.3761 176° South 340 391 10,000 -98 Descending Washington Center
Wed 09:34:30 PM 37.8911 -76.3681 168° South 349 402 10,000  Level Washington Center
Wed 09:34:57 PM 37.8433 -76.3650 177° South 336 387 10,000  Level Washington Center
Wed 09:35:30 PM 37.7994 -76.3539 169° South 349 402 10,000  Level Washington Center
Wed 09:35:58 PM 37.7517 -76.3431 170° South 338 389 10,000  Level Washington Center
Wed 09:36:31 PM 37.7081 -76.3267 163° South 349 402 10,000 -100 Level Washington Center
Wed 09:36:58 PM 37.6642 -76.3158 169° South 323 372 9,900 4,138 Descending Washington Center
Wed 09:37:29 PM 37.6267 -76.3050 167° South 328 377 14,000 -882 Climbing Washington Center
Wed 09:38:06 PM 37.5789 -76.2942 170° South 264 304 8,900 -5,311 Descending Washington Center
Wed 09:38:30 PM 37.5539 -76.2861 166° South 294 338 8,600 -1,400 Descending Washington Center
Wed 09:39:06 PM 37.5058 -76.2778 172° South 267 307 7,500 -1,500 Descending Washington Center
Wed 09:39:30 PM 37.4808 -76.2669 161° South 274 315 7,100 -1,612 Descending Washington Center
Wed 09:40:13 PM 37.4247 -76.2533 169° South 266 306 5,700 -1,770 Descending Washington Center
Wed 09:40:31 PM 37.3997 -76.2453 166° South 274 315 5,300 -1,385 Descending Washington Center
Wed 09:41:05 PM 37.3581 -76.2347 169° South 262 302 4,500 -1,345 Descending Washington Center
Wed 09:41:29 PM 37.3289 -76.2264 167° South 274 315 4,000 -1,377 Descending Washington Center
Wed 09:42:06 PM 37.2914 -76.2183 170° South 253 291 3,100 -1,377 Descending Washington Center
Wed 09:42:30 PM 37.2622 -76.2078 164° South 261 300 2,600 -896 Descending Washington Center
Wed 09:43:13 PM 37.2164 -76.1994 172° South 232 267 2,100 -590 Descending Washington Center
Wed 09:43:31 PM 37.1997 -76.1917 160° South 249 287 2,000 -194 Descending Washington Center
Wed 09:44:15 PM 37.1539 -76.1833 172° South 218 251 1,900 -286 Descending Washington Center
Wed 09:45:16 PM 37.0956 -76.1672 168° South 216 249 1,500 -158 Descending Washington Center
Wed 09:46:09 PM 37.0456 -76.1539 168° South 194 223 1,600 113 Climbing Washington Center

Login

Don't have an account? Register now (free) for customized features, flight alerts, and more!